createdAt,value
2023-01-21T00:00:25.656Z,14.40
2023-01-21T00:02:28.697Z,12.25
2023-01-21T00:04:34.397Z,13.40
2023-01-21T00:06:37.410Z,12.90
2023-01-21T00:08:40.351Z,13.00
2023-01-21T00:10:44.989Z,13.85
2023-01-21T00:12:48.031Z,12.68
2023-01-21T00:14:52.310Z,12.75
2023-01-21T00:16:55.318Z,13.48
2023-01-21T00:18:58.411Z,12.57
2023-01-21T00:21:01.675Z,14.90
2023-01-21T00:23:04.888Z,12.57
2023-01-21T00:25:08.918Z,12.25
2023-01-21T00:27:13.328Z,13.55
2023-01-21T00:29:16.474Z,14.35
2023-01-21T00:31:19.544Z,13.57
2023-01-21T00:33:22.585Z,13.25
2023-01-21T00:35:25.590Z,12.60
2023-01-21T00:37:28.611Z,13.18
2023-01-21T00:39:31.629Z,13.52
2023-01-21T00:41:34.745Z,14.65
2023-01-21T00:43:39.462Z,13.35
2023-01-21T00:45:42.585Z,13.27
2023-01-21T00:47:45.790Z,13.27
2023-01-21T00:49:48.772Z,12.55
2023-01-21T00:51:51.814Z,13.68
2023-01-21T00:53:54.748Z,13.73
2023-01-21T00:56:00.554Z,11.95
2023-01-21T00:58:03.707Z,12.93
2023-01-21T01:00:13.086Z,13.63
2023-01-21T01:02:16.130Z,13.95
2023-01-21T01:04:19.988Z,13.48
2023-01-21T01:06:24.338Z,13.10
2023-01-21T01:08:27.394Z,12.25
2023-01-21T01:10:30.416Z,11.40
2023-01-21T01:12:33.348Z,11.25
2023-01-21T01:14:36.367Z,13.43
2023-01-21T01:16:40.693Z,13.95
2023-01-21T01:18:44.413Z,14.00
2023-01-21T01:20:47.333Z,13.65
2023-01-21T01:22:50.354Z,13.05
2023-01-21T01:24:53.467Z,13.65
2023-01-21T01:26:58.223Z,13.02
2023-01-21T01:29:01.731Z,13.98
2023-01-21T01:31:05.787Z,14.13
2023-01-21T01:33:10.404Z,11.80
2023-01-21T01:35:13.414Z,11.35
2023-01-21T01:37:16.319Z,12.60
2023-01-21T01:39:19.245Z,13.32
2023-01-21T01:41:27.517Z,12.23
2023-01-21T01:43:55.757Z,12.38
2023-01-21T01:45:58.767Z,14.45
2023-01-21T01:48:03.579Z,14.02
2023-01-21T01:50:11.355Z,13.70
2023-01-21T01:52:15.681Z,12.90
2023-01-21T01:54:21.600Z,12.05
2023-01-21T01:56:24.586Z,13.63
2023-01-21T01:58:28.309Z,12.00
2023-01-21T02:00:31.424Z,11.50
2023-01-21T02:02:35.559Z,10.35
2023-01-21T02:04:40.304Z,10.73
2023-01-21T02:06:45.167Z,12.25
2023-01-21T02:08:48.776Z,12.60
2023-01-21T02:10:51.771Z,11.60
2023-01-21T02:12:54.973Z,12.48
2023-01-21T02:14:58.015Z,12.02
2023-01-21T02:17:08.807Z,11.10
2023-01-21T02:19:42.985Z,12.20
2023-01-21T02:21:55.759Z,11.95
2023-01-21T02:24:15.567Z,13.15
2023-01-21T02:26:48.268Z,12.15
2023-01-21T02:29:14.348Z,12.25
2023-01-21T02:31:38.171Z,12.43
2023-01-21T02:33:55.348Z,11.93
2023-01-21T02:36:08.541Z,13.85
2023-01-21T02:38:16.286Z,11.73
2023-01-21T02:40:25.070Z,11.57
2023-01-21T02:42:34.007Z,12.40
2023-01-21T02:44:40.455Z,12.20
2023-01-21T02:46:46.540Z,12.30
2023-01-21T02:48:55.552Z,12.73
2023-01-21T02:50:58.692Z,12.20
2023-01-21T02:53:03.901Z,12.05
2023-01-21T02:55:10.667Z,12.20
2023-01-21T02:57:16.985Z,12.43
2023-01-21T02:59:19.893Z,12.60
2023-01-21T03:01:28.757Z,11.60
2023-01-21T03:03:56.870Z,12.15
2023-01-21T03:06:41.279Z,11.63
2023-01-21T03:08:49.189Z,12.10
2023-01-21T03:10:59.918Z,13.10
2023-01-21T03:13:05.840Z,11.93
2023-01-21T03:15:29.294Z,10.60
2023-01-21T03:17:36.691Z,11.35
2023-01-21T03:19:51.170Z,11.65
2023-01-21T03:21:55.070Z,12.23
2023-01-21T03:23:59.535Z,11.75
2023-01-21T03:26:02.810Z,11.25
2023-01-21T03:28:08.588Z,11.93
2023-01-21T03:30:14.750Z,11.60
2023-01-21T03:32:19.709Z,11.50
2023-01-21T03:34:24.936Z,11.50
2023-01-21T03:36:34.599Z,11.05
2023-01-21T03:38:40.814Z,11.43
2023-01-21T03:40:47.382Z,11.52
2023-01-21T03:42:52.664Z,10.82
2023-01-21T03:44:55.996Z,11.90
2023-01-21T03:47:03.666Z,12.13
2023-01-21T03:49:08.975Z,11.80
2023-01-21T03:51:16.518Z,11.38
2023-01-21T03:53:20.874Z,12.85
2023-01-21T03:55:23.903Z,11.95
2023-01-21T03:57:26.819Z,12.32
2023-01-21T03:59:29.755Z,11.77
2023-01-21T04:01:32.747Z,12.15
2023-01-21T04:03:35.739Z,11.77
2023-01-21T04:05:38.724Z,11.52
2023-01-21T04:07:41.869Z,12.35
2023-01-21T04:09:46.335Z,11.90
2023-01-21T04:11:49.441Z,12.88
2023-01-21T04:13:52.467Z,12.55
2023-01-21T04:15:55.362Z,11.60
2023-01-21T04:17:58.306Z,12.45
2023-01-21T04:20:01.193Z,12.65
2023-01-21T04:22:04.200Z,11.65
2023-01-21T04:24:08.054Z,14.05
2023-01-21T04:26:12.463Z,12.10
2023-01-21T04:28:15.537Z,12.30
2023-01-21T04:30:19.205Z,12.43
2023-01-21T04:32:22.297Z,12.90
2023-01-21T04:34:25.301Z,13.70
2023-01-21T04:36:28.329Z,12.80
2023-01-21T04:38:31.236Z,13.65
2023-01-21T04:40:34.236Z,14.13
2023-01-21T04:42:38.640Z,15.07
2023-01-21T04:44:41.627Z,15.50
2023-01-21T04:46:44.721Z,16.30
2023-01-21T04:48:47.757Z,15.48
2023-01-21T04:50:50.735Z,13.82
2023-01-21T04:52:53.841Z,15.27
2023-01-21T04:54:56.847Z,15.77
2023-01-21T04:57:00.144Z,18.65
2023-01-21T04:59:04.484Z,19.70
2023-01-21T05:01:07.816Z,18.35
2023-01-21T05:03:10.828Z,19.50
2023-01-21T05:05:13.767Z,19.65
2023-01-21T05:07:16.766Z,20.25
2023-01-21T05:09:19.791Z,18.83
2023-01-21T05:11:22.716Z,19.63
2023-01-21T05:13:25.763Z,20.60
2023-01-21T05:15:30.299Z,20.98
2023-01-21T05:17:33.234Z,20.75
2023-01-21T05:19:36.163Z,21.13
2023-01-21T05:21:39.212Z,19.98
2023-01-21T05:23:42.184Z,21.25
2023-01-21T05:25:45.197Z,20.17
2023-01-21T05:27:53.125Z,19.52
2023-01-21T05:29:57.064Z,19.05
2023-01-21T05:32:01.488Z,20.02
2023-01-21T05:34:04.881Z,20.35
2023-01-21T05:36:08.692Z,19.65
2023-01-21T05:38:11.706Z,19.20
2023-01-21T05:40:16.280Z,20.40
2023-01-21T05:42:19.477Z,19.13
2023-01-21T05:44:22.403Z,18.40
2023-01-21T05:46:25.460Z,18.60
2023-01-21T05:48:30.226Z,18.88
2023-01-21T05:50:33.633Z,17.63
2023-01-21T05:52:36.703Z,20.35
2023-01-21T05:54:49.244Z,19.52
2023-01-21T05:56:59.053Z,18.95
2023-01-21T05:59:02.116Z,20.05
2023-01-21T06:01:05.359Z,18.90
2023-01-21T06:03:08.390Z,17.80
2023-01-21T06:05:12.735Z,17.98
2023-01-21T06:07:15.816Z,18.30
2023-01-21T06:09:18.767Z,18.70
2023-01-21T06:11:21.665Z,17.95
2023-01-21T06:13:24.919Z,18.33
2023-01-21T06:15:28.012Z,18.17
2023-01-21T06:17:31.038Z,16.90
2023-01-21T06:19:34.080Z,15.13
2023-01-21T06:21:38.599Z,16.63
2023-01-21T06:23:41.837Z,18.23
2023-01-21T06:25:44.863Z,16.73
2023-01-21T06:27:47.872Z,16.20
2023-01-21T06:29:50.897Z,15.57
2023-01-21T06:31:53.965Z,16.10
2023-01-21T06:33:57.107Z,16.88
2023-01-21T06:36:00.097Z,17.35
2023-01-21T06:38:04.570Z,17.90
2023-01-21T06:40:09.142Z,17.00
2023-01-21T06:42:12.107Z,17.55
2023-01-21T06:44:15.040Z,16.80
2023-01-21T06:46:18.102Z,17.45
2023-01-21T06:48:21.103Z,17.10
2023-01-21T06:50:24.005Z,18.65
2023-01-21T06:52:26.969Z,16.63
2023-01-21T06:54:31.437Z,18.50
2023-01-21T06:56:34.362Z,18.10
2023-01-21T06:58:37.346Z,17.40
2023-01-21T07:00:40.419Z,18.17
2023-01-21T07:02:43.348Z,17.75
2023-01-21T07:04:46.379Z,16.98
2023-01-21T07:06:50.073Z,18.08
2023-01-21T07:08:52.979Z,17.98
2023-01-21T07:10:57.513Z,18.08
2023-01-21T07:13:00.591Z,18.73
2023-01-21T07:15:03.688Z,16.45
2023-01-21T07:17:06.830Z,16.60
2023-01-21T07:19:10.038Z,17.85
2023-01-21T07:21:13.008Z,17.02
2023-01-21T07:23:16.068Z,18.15
2023-01-21T07:25:19.286Z,19.63
2023-01-21T07:27:23.794Z,18.50
2023-01-21T07:29:27.979Z,18.65
2023-01-21T07:31:31.140Z,16.90
2023-01-21T07:33:34.133Z,17.17
2023-01-21T07:35:37.171Z,17.05
2023-01-21T07:37:40.466Z,17.42
2023-01-21T07:39:43.470Z,17.95
2023-01-21T07:41:46.690Z,18.83
2023-01-21T07:43:51.324Z,18.45
2023-01-21T07:45:54.682Z,16.58
2023-01-21T07:47:57.760Z,16.35
2023-01-21T07:50:04.825Z,16.83
2023-01-21T07:52:07.833Z,18.10
2023-01-21T07:54:11.537Z,17.33
2023-01-21T07:56:14.956Z,15.70
2023-01-21T07:58:17.988Z,16.65
2023-01-21T08:00:23.670Z,18.25
2023-01-21T08:02:26.862Z,16.23
2023-01-21T08:04:29.949Z,15.93
2023-01-21T08:06:32.968Z,17.50
2023-01-21T08:08:36.390Z,15.85
2023-01-21T08:10:39.450Z,15.00
2023-01-21T08:12:42.848Z,17.08
2023-01-21T08:14:45.867Z,16.02
2023-01-21T08:16:50.266Z,15.55
2023-01-21T08:18:53.312Z,15.45
2023-01-21T08:20:57.020Z,17.27
2023-01-21T08:23:01.290Z,18.60
2023-01-21T08:25:06.146Z,18.77
2023-01-21T08:27:09.397Z,18.13
2023-01-21T08:29:12.509Z,17.60
2023-01-21T08:31:16.039Z,17.77
2023-01-21T08:33:20.632Z,17.38
2023-01-21T08:35:24.552Z,17.60
2023-01-21T08:37:27.621Z,15.65
2023-01-21T08:39:30.706Z,17.58
2023-01-21T08:41:33.793Z,17.70
2023-01-21T08:43:36.873Z,17.30
2023-01-21T08:45:40.029Z,23.42
2023-01-21T08:47:44.317Z,20.75
2023-01-21T08:49:48.683Z,18.00
2023-01-21T08:51:51.801Z,16.15
2023-01-21T08:53:54.933Z,21.77
2023-01-21T08:56:00.056Z,17.67
2023-01-21T08:58:03.196Z,16.17
2023-01-21T09:00:07.352Z,19.63
2023-01-21T09:02:12.212Z,21.27
2023-01-21T09:04:15.355Z,22.85
2023-01-21T09:06:19.695Z,23.70
2023-01-21T09:08:22.682Z,17.67
2023-01-21T09:10:43.159Z,16.80
2023-01-21T09:12:46.133Z,18.08
2023-01-21T09:14:49.335Z,17.90
2023-01-21T09:16:52.545Z,18.90
2023-01-21T09:18:56.780Z,19.60
2023-01-21T09:21:03.126Z,19.15
2023-01-21T09:23:24.154Z,18.20
2023-01-21T09:25:27.887Z,18.73
2023-01-21T09:27:31.060Z,19.60
2023-01-21T09:29:34.320Z,19.25
2023-01-21T09:31:37.661Z,19.75
2023-01-21T09:33:43.417Z,19.92
2023-01-21T09:35:46.346Z,17.83
2023-01-21T09:37:49.501Z,19.23
2023-01-21T09:39:53.904Z,18.27
2023-01-21T09:41:58.165Z,18.88
2023-01-21T09:44:06.477Z,17.20
2023-01-21T09:46:16.146Z,18.33
2023-01-21T09:48:28.133Z,17.83
2023-01-21T09:50:32.428Z,17.33
2023-01-21T09:52:38.954Z,18.45
2023-01-21T09:54:42.085Z,19.10
2023-01-21T09:57:02.354Z,19.40
2023-01-21T09:59:07.668Z,18.95
2023-01-21T10:01:13.988Z,18.10
2023-01-21T10:03:26.242Z,19.83
2023-01-21T10:05:46.960Z,21.75
2023-01-21T10:07:55.620Z,24.70
2023-01-21T10:10:08.245Z,17.55
2023-01-21T10:12:36.567Z,18.05
2023-01-21T10:15:11.386Z,19.10
2023-01-21T10:17:18.003Z,18.95
2023-01-21T10:19:24.578Z,19.45
2023-01-21T10:21:32.203Z,16.15
2023-01-21T10:23:38.862Z,14.73
2023-01-21T10:25:42.206Z,17.35
2023-01-21T10:27:46.911Z,15.57
2023-01-21T10:29:53.020Z,15.95
2023-01-21T10:31:59.522Z,16.45
2023-01-21T10:34:02.988Z,14.82
2023-01-21T10:36:43.910Z,14.93
2023-01-21T10:38:53.637Z,14.25
2023-01-21T10:41:00.618Z,13.73
2023-01-21T10:43:08.079Z,14.13
2023-01-21T10:45:25.825Z,16.30
2023-01-21T10:47:35.431Z,13.88
2023-01-21T10:49:54.027Z,12.27
2023-01-21T10:52:01.978Z,15.13
2023-01-21T10:54:10.541Z,14.60
2023-01-21T10:56:20.145Z,13.13
2023-01-21T10:58:29.291Z,14.43
2023-01-21T11:00:34.894Z,18.70
2023-01-21T11:02:38.176Z,12.88
2023-01-21T11:04:42.136Z,14.30
2023-01-21T11:06:45.592Z,16.83
2023-01-21T11:08:51.312Z,13.90
2023-01-21T11:10:55.233Z,18.35
2023-01-21T11:12:58.575Z,18.30
2023-01-21T11:15:09.023Z,27.40
2023-01-21T11:17:12.113Z,21.33
2023-01-21T11:19:16.847Z,15.02
2023-01-21T11:21:23.261Z,13.00
2023-01-21T11:23:29.382Z,19.40
2023-01-21T11:25:37.234Z,17.00
2023-01-21T11:27:40.311Z,18.90
2023-01-21T11:29:43.739Z,25.10
2023-01-21T11:31:49.611Z,14.98
2023-01-21T11:33:52.898Z,30.65
2023-01-21T11:35:58.413Z,32.88
2023-01-21T11:38:01.533Z,15.55
2023-01-21T11:40:06.695Z,43.40
2023-01-21T11:42:15.676Z,17.30
2023-01-21T11:44:20.162Z,31.50
2023-01-21T11:46:28.505Z,14.98
2023-01-21T11:48:35.241Z,33.78
2023-01-21T11:50:38.713Z,15.75
2023-01-21T11:52:41.806Z,13.05
2023-01-21T11:54:45.207Z,13.52
2023-01-21T11:56:56.811Z,14.07
2023-01-21T11:58:59.899Z,13.10
2023-01-21T12:01:05.221Z,13.43
2023-01-21T12:03:08.311Z,24.50
2023-01-21T12:05:16.856Z,12.55
2023-01-21T12:07:21.378Z,21.45
2023-01-21T12:09:24.715Z,13.40
2023-01-21T12:11:29.104Z,31.63
2023-01-21T12:13:37.003Z,15.55
2023-01-21T12:16:03.777Z,13.57
2023-01-21T12:18:16.090Z,18.42
2023-01-21T12:20:26.581Z,14.13
2023-01-21T12:22:45.344Z,13.05
2023-01-21T12:25:01.604Z,13.30
2023-01-21T12:27:11.784Z,13.65
2023-01-21T12:29:40.735Z,15.40
2023-01-21T12:31:46.321Z,12.82
2023-01-21T12:33:52.396Z,12.30
2023-01-21T12:35:58.908Z,17.23
2023-01-21T12:38:04.491Z,13.65
2023-01-21T12:40:16.550Z,14.20
2023-01-21T12:42:22.916Z,12.80
2023-01-21T12:44:29.708Z,14.00
2023-01-21T12:46:35.135Z,13.55
2023-01-21T12:48:41.312Z,13.10
2023-01-21T12:50:48.171Z,12.63
2023-01-21T12:53:01.719Z,13.88
2023-01-21T12:55:09.089Z,13.07
2023-01-21T12:57:17.986Z,14.43
2023-01-21T12:59:24.151Z,13.80
2023-01-21T13:01:44.251Z,12.77
2023-01-21T13:03:53.664Z,14.00
2023-01-21T13:06:00.926Z,13.73
2023-01-21T13:08:21.960Z,14.30
2023-01-21T13:10:27.543Z,13.35
2023-01-21T13:12:32.449Z,17.92
2023-01-21T13:14:38.703Z,13.35
2023-01-21T13:16:44.485Z,11.98
2023-01-21T13:18:51.845Z,15.40
2023-01-21T13:20:56.291Z,11.38
2023-01-21T13:23:06.787Z,11.63
2023-01-21T13:25:21.962Z,13.57
2023-01-21T13:27:29.502Z,13.88
2023-01-21T13:29:38.898Z,13.13
2023-01-21T13:31:47.457Z,13.02
2023-01-21T13:33:55.867Z,14.07
2023-01-21T13:36:07.492Z,13.85
2023-01-21T13:38:21.337Z,12.63
2023-01-21T13:40:39.398Z,12.25
2023-01-21T13:42:47.685Z,10.80
2023-01-21T13:45:09.029Z,11.80
2023-01-21T13:47:21.735Z,11.80
2023-01-21T13:50:02.790Z,11.95
2023-01-21T13:52:12.208Z,10.45
2023-01-21T13:54:50.246Z,11.68
2023-01-21T13:57:04.430Z,12.40
2023-01-21T13:59:12.112Z,11.65
2023-01-21T14:01:17.210Z,11.15
2023-01-21T14:03:27.487Z,11.00
2023-01-21T14:05:33.845Z,10.55
2023-01-21T14:07:40.391Z,11.00
2023-01-21T14:09:47.804Z,11.77
2023-01-21T14:11:54.261Z,10.27
2023-01-21T14:14:21.829Z,12.65
2023-01-21T14:16:46.832Z,15.20
2023-01-21T14:19:03.682Z,11.40
2023-01-21T14:21:16.048Z,11.05
2023-01-21T14:23:35.402Z,9.95
2023-01-21T14:25:51.099Z,10.25
2023-01-21T14:28:01.649Z,9.48
2023-01-21T14:30:09.988Z,10.18
2023-01-21T14:32:16.913Z,8.50
2023-01-21T14:34:22.984Z,11.05
2023-01-21T14:36:31.078Z,10.85
2023-01-21T14:38:38.191Z,11.70
2023-01-21T14:40:49.836Z,10.88
2023-01-21T14:42:54.767Z,12.05
2023-01-21T14:45:04.955Z,10.48
2023-01-21T14:47:16.322Z,10.55
2023-01-21T14:49:39.900Z,9.40
2023-01-21T14:51:45.668Z,9.75
2023-01-21T14:53:50.084Z,13.35
2023-01-21T14:56:16.648Z,9.90
2023-01-21T14:58:23.780Z,10.20
2023-01-21T15:00:30.838Z,12.82
2023-01-21T15:02:35.841Z,10.88
2023-01-21T15:04:40.089Z,10.20
2023-01-21T15:06:43.624Z,7.68
2023-01-21T15:08:49.675Z,13.70
2023-01-21T15:10:56.333Z,9.82
2023-01-21T15:13:02.124Z,19.40
2023-01-21T15:15:30.963Z,23.83
2023-01-21T15:17:48.420Z,14.93
2023-01-21T15:19:58.152Z,11.63
2023-01-21T15:22:15.846Z,11.98
2023-01-21T15:24:25.854Z,10.40
2023-01-21T15:26:33.267Z,9.57
2023-01-21T15:28:42.474Z,8.82
2023-01-21T15:30:59.094Z,10.10
2023-01-21T15:33:02.316Z,10.00
2023-01-21T15:35:12.135Z,10.77
2023-01-21T15:37:18.441Z,10.50
2023-01-21T15:39:25.826Z,9.00
2023-01-21T15:41:37.589Z,9.43
2023-01-21T15:43:45.179Z,12.00
2023-01-21T15:45:53.188Z,10.00
2023-01-21T15:48:06.852Z,10.15
2023-01-21T15:50:18.556Z,13.68
2023-01-21T15:52:31.401Z,9.15
2023-01-21T15:54:38.966Z,8.68
2023-01-21T15:56:52.011Z,10.07
2023-01-21T15:59:03.413Z,9.07
2023-01-21T16:01:13.482Z,8.57
2023-01-21T16:03:23.278Z,9.25
2023-01-21T16:05:32.489Z,8.68
2023-01-21T16:07:44.370Z,8.07
2023-01-21T16:09:57.930Z,7.90
2023-01-21T16:12:09.732Z,7.72
2023-01-21T16:14:24.167Z,8.40
2023-01-21T16:16:39.197Z,9.50
2023-01-21T16:18:51.560Z,9.90
2023-01-21T16:20:57.673Z,8.95
2023-01-21T16:23:02.954Z,9.50
2023-01-21T16:25:08.745Z,9.77
2023-01-21T16:27:19.410Z,9.07
2023-01-21T16:29:22.559Z,9.80
2023-01-21T16:31:25.701Z,10.18
2023-01-21T16:33:30.203Z,8.15
2023-01-21T16:35:42.945Z,12.35
2023-01-21T16:37:54.566Z,9.68
2023-01-21T16:40:21.497Z,8.95
2023-01-21T16:42:27.549Z,7.72
2023-01-21T16:44:30.781Z,9.30
2023-01-21T16:46:37.366Z,10.07
2023-01-21T16:48:42.059Z,8.98
2023-01-21T16:50:48.411Z,8.95
2023-01-21T16:52:52.272Z,9.82
2023-01-21T16:54:56.200Z,9.60
2023-01-21T16:57:00.529Z,10.85
2023-01-21T16:59:03.635Z,8.60
2023-01-21T17:01:11.238Z,9.90
2023-01-21T17:03:14.248Z,8.40
2023-01-21T17:05:19.490Z,9.00
2023-01-21T17:07:24.543Z,10.65
2023-01-21T17:09:30.988Z,10.15
2023-01-21T17:11:36.514Z,10.98
2023-01-21T17:13:41.345Z,7.57
2023-01-21T17:15:45.834Z,9.10
2023-01-21T17:17:48.889Z,10.25
2023-01-21T17:19:52.273Z,8.48
2023-01-21T17:21:58.330Z,10.10
2023-01-21T17:24:04.501Z,10.07
2023-01-21T17:26:10.719Z,10.35
2023-01-21T17:28:18.143Z,9.60
2023-01-21T17:30:30.348Z,8.80
2023-01-21T17:32:34.145Z,8.95
2023-01-21T17:34:39.849Z,11.38
2023-01-21T17:36:44.252Z,9.73
2023-01-21T17:38:48.940Z,11.60
2023-01-21T17:41:01.307Z,9.00
2023-01-21T17:43:15.384Z,8.63
2023-01-21T17:45:21.002Z,9.05
2023-01-21T17:47:26.167Z,8.07
2023-01-21T17:49:29.218Z,9.55
2023-01-21T17:51:32.948Z,8.68
2023-01-21T17:53:41.246Z,10.10
2023-01-21T17:55:56.853Z,10.05
2023-01-21T17:58:04.509Z,9.80
2023-01-21T18:00:29.403Z,9.82
2023-01-21T18:02:32.476Z,8.32
2023-01-21T18:04:35.604Z,8.77
2023-01-21T18:06:38.672Z,10.25
2023-01-21T18:08:41.730Z,8.93
2023-01-21T18:10:46.479Z,9.13
2023-01-21T18:12:49.700Z,9.10
2023-01-21T18:14:52.707Z,10.55
2023-01-21T18:16:55.761Z,11.60
2023-01-21T18:18:59.281Z,9.82
2023-01-21T18:21:03.041Z,8.77
2023-01-21T18:23:07.013Z,10.05
2023-01-21T18:25:12.206Z,11.77
2023-01-21T18:27:17.234Z,12.45
2023-01-21T18:29:21.815Z,13.23
2023-01-21T18:31:25.175Z,10.25
2023-01-21T18:33:28.529Z,11.55
2023-01-21T18:35:31.602Z,11.35
2023-01-21T18:37:34.794Z,10.75
2023-01-21T18:39:38.188Z,9.25
2023-01-21T18:41:41.335Z,11.35
2023-01-21T18:43:45.781Z,12.32
2023-01-21T18:45:48.766Z,11.77
2023-01-21T18:47:52.357Z,10.63
2023-01-21T18:49:55.367Z,17.08
2023-01-21T18:51:58.346Z,9.95
2023-01-21T18:54:01.383Z,12.43
2023-01-21T18:56:06.272Z,12.20
2023-01-21T18:58:13.337Z,11.50
2023-01-21T19:00:20.905Z,10.55
2023-01-21T19:02:24.170Z,16.98
2023-01-21T19:04:27.344Z,16.20
2023-01-21T19:06:30.534Z,12.13
2023-01-21T19:08:33.649Z,13.75
2023-01-21T19:10:36.702Z,12.75
2023-01-21T19:12:39.935Z,11.55
2023-01-21T19:14:43.198Z,12.50
2023-01-21T19:16:48.122Z,16.20
2023-01-21T19:18:51.376Z,11.35
2023-01-21T19:20:54.976Z,10.93
2023-01-21T19:22:58.139Z,10.10
2023-01-21T19:25:01.178Z,10.57
2023-01-21T19:27:04.376Z,9.35
2023-01-21T19:29:11.609Z,9.32
2023-01-21T19:31:14.853Z,11.60
2023-01-21T19:33:19.453Z,11.52
2023-01-21T19:35:29.850Z,11.63
2023-01-21T19:37:33.000Z,9.48
2023-01-21T19:39:36.095Z,10.43
2023-01-21T19:41:39.121Z,10.52
2023-01-21T19:43:42.311Z,11.63
2023-01-21T19:45:46.045Z,11.93
2023-01-21T19:47:50.734Z,12.13
2023-01-21T19:49:55.085Z,10.52
2023-01-21T19:51:58.139Z,13.15
2023-01-21T19:54:01.251Z,10.40
2023-01-21T19:56:06.275Z,11.40
2023-01-21T19:58:17.837Z,9.80
2023-01-21T20:00:23.397Z,10.55
2023-01-21T20:02:26.508Z,9.70
2023-01-21T20:04:29.568Z,10.77
2023-01-21T20:06:39.278Z,11.00
2023-01-21T20:08:42.575Z,9.20
2023-01-21T20:10:45.639Z,9.98
2023-01-21T20:12:49.172Z,10.88
2023-01-21T20:14:52.355Z,10.88
2023-01-21T20:16:56.517Z,10.85
2023-01-21T20:19:02.239Z,10.65
2023-01-21T20:21:05.899Z,11.52
2023-01-21T20:23:14.687Z,13.38
2023-01-21T20:25:20.040Z,16.35
2023-01-21T20:27:23.354Z,13.70
2023-01-21T20:29:27.501Z,13.32
2023-01-21T20:31:31.084Z,14.35
2023-01-21T20:33:34.398Z,14.02
2023-01-21T20:35:37.579Z,12.45
2023-01-21T20:37:40.854Z,11.73
2023-01-21T20:39:45.254Z,13.48
2023-01-21T20:41:48.439Z,13.60
2023-01-21T20:43:51.454Z,14.50
2023-01-21T20:45:54.934Z,14.00
2023-01-21T20:47:59.647Z,15.13
2023-01-21T20:50:02.869Z,15.77
2023-01-21T20:52:06.002Z,16.15
2023-01-21T20:54:09.107Z,15.25
2023-01-21T20:56:19.498Z,15.07
2023-01-21T20:58:23.138Z,17.80
2023-01-21T21:00:29.290Z,16.00
2023-01-21T21:02:32.447Z,21.67
2023-01-21T21:04:35.723Z,20.02
2023-01-21T21:06:38.978Z,20.92
2023-01-21T21:08:42.239Z,21.20
2023-01-21T21:10:45.921Z,21.88
2023-01-21T21:12:51.288Z,19.52
2023-01-21T21:14:54.308Z,20.30
2023-01-21T21:16:58.166Z,23.85
2023-01-21T21:19:02.111Z,22.83
2023-01-21T21:21:05.609Z,22.05
2023-01-21T21:23:09.221Z,23.02
2023-01-21T21:25:16.139Z,21.50
2023-01-21T21:27:19.410Z,20.50
2023-01-21T21:29:23.926Z,20.92
2023-01-21T21:31:30.156Z,21.50
2023-01-21T21:33:33.357Z,22.50
2023-01-21T21:35:37.422Z,21.73
2023-01-21T21:37:40.524Z,19.75
2023-01-21T21:39:43.529Z,20.33
2023-01-21T21:42:04.988Z,21.15
2023-01-21T21:44:09.158Z,20.67
2023-01-21T21:46:31.459Z,19.67
2023-01-21T21:48:41.932Z,18.98
2023-01-21T21:50:45.061Z,18.35
2023-01-21T21:52:48.347Z,19.20
2023-01-21T21:54:51.762Z,19.05
2023-01-21T21:56:54.828Z,18.02
2023-01-21T21:58:57.989Z,18.98
2023-01-21T22:01:08.518Z,17.75
2023-01-21T22:03:14.081Z,18.95
2023-01-21T22:05:17.661Z,18.42
2023-01-21T22:07:21.072Z,16.42
2023-01-21T22:09:24.344Z,16.85
2023-01-21T22:11:28.726Z,16.35
2023-01-21T22:13:32.738Z,16.48
2023-01-21T22:15:36.187Z,18.05
2023-01-21T22:17:39.350Z,15.65
2023-01-21T22:19:43.692Z,15.52
2023-01-21T22:21:46.852Z,15.95
2023-01-21T22:23:50.230Z,16.42
2023-01-21T22:25:53.720Z,16.38
2023-01-21T22:27:56.916Z,16.88
2023-01-21T22:30:01.445Z,15.25
2023-01-21T22:32:05.086Z,15.50
2023-01-21T22:34:08.230Z,15.05
2023-01-21T22:36:15.166Z,14.27
2023-01-21T22:38:19.457Z,16.15
2023-01-21T22:40:22.526Z,15.07
2023-01-21T22:42:25.726Z,16.70
2023-01-21T22:44:28.818Z,16.55
2023-01-21T22:46:33.732Z,17.45
2023-01-21T22:48:36.724Z,15.85
2023-01-21T22:50:41.097Z,17.75
2023-01-21T22:52:45.759Z,16.02
2023-01-21T22:54:50.161Z,17.75
2023-01-21T22:56:53.445Z,15.98
2023-01-21T22:58:56.593Z,15.55
2023-01-21T23:01:00.584Z,16.27
2023-01-21T23:03:03.968Z,15.07
2023-01-21T23:05:07.780Z,14.85
2023-01-21T23:07:11.226Z,15.65
2023-01-21T23:09:16.658Z,16.38
2023-01-21T23:11:21.207Z,16.17
2023-01-21T23:13:26.477Z,15.50
2023-01-21T23:15:29.984Z,15.00
2023-01-21T23:17:33.369Z,16.02
2023-01-21T23:19:36.515Z,14.90
2023-01-21T23:21:40.365Z,15.57
2023-01-21T23:23:43.507Z,15.73
2023-01-21T23:25:48.810Z,14.38
2023-01-21T23:27:51.940Z,16.10
2023-01-21T23:29:55.021Z,15.60
2023-01-21T23:31:58.918Z,14.52
2023-01-21T23:34:03.308Z,14.38
2023-01-21T23:36:09.383Z,13.20
2023-01-21T23:38:12.482Z,13.57
2023-01-21T23:40:16.132Z,12.77
2023-01-21T23:42:22.438Z,13.52
2023-01-21T23:44:26.256Z,13.48
2023-01-21T23:46:29.419Z,13.00
2023-01-21T23:48:32.580Z,13.23
2023-01-21T23:50:35.704Z,12.68
2023-01-21T23:52:39.648Z,13.90
2023-01-21T23:54:43.761Z,13.52
2023-01-21T23:56:46.833Z,12.13
2023-01-21T23:58:51.712Z,12.10
